sensor_id;sensor_type;location;lat;lon;timestamp;pressure;altitude;pressure_sealevel;temperature
66170;BMP280;66757;44.024;20.456;2023-02-03T00:00:11;98642.50;;;5.17
66170;BMP280;66757;44.024;20.456;2023-02-03T00:02:37;98643.47;;;5.33
66170;BMP280;66757;44.024;20.456;2023-02-03T00:05:03;98655.03;;;5.32
66170;BMP280;66757;44.024;20.456;2023-02-03T00:07:28;98651.59;;;5.32
66170;BMP280;66757;44.024;20.456;2023-02-03T00:09:55;98661.69;;;4.79
66170;BMP280;66757;44.024;20.456;2023-02-03T00:12:20;98657.00;;;4.81
66170;BMP280;66757;44.024;20.456;2023-02-03T00:14:46;98659.22;;;4.89
66170;BMP280;66757;44.024;20.456;2023-02-03T00:17:11;98660.75;;;5.24
66170;BMP280;66757;44.024;20.456;2023-02-03T00:19:37;98666.31;;;5.11
66170;BMP280;66757;44.024;20.456;2023-02-03T00:22:02;98673.31;;;5.44
66170;BMP280;66757;44.024;20.456;2023-02-03T00:24:27;98668.66;;;5.29
66170;BMP280;66757;44.024;20.456;2023-02-03T00:26:53;98667.34;;;5.26
66170;BMP280;66757;44.024;20.456;2023-02-03T00:29:18;98679.31;;;5.17
66170;BMP280;66757;44.024;20.456;2023-02-03T00:31:49;98685.75;;;5.26
66170;BMP280;66757;44.024;20.456;2023-02-03T00:34:14;98691.81;;;5.27
66170;BMP280;66757;44.024;20.456;2023-02-03T00:36:39;98684.34;;;5.02
66170;BMP280;66757;44.024;20.456;2023-02-03T00:39:05;98691.31;;;5.30
66170;BMP280;66757;44.024;20.456;2023-02-03T00:41:30;98698.69;;;5.33
66170;BMP280;66757;44.024;20.456;2023-02-03T00:43:56;98706.38;;;5.18
66170;BMP280;66757;44.024;20.456;2023-02-03T00:46:21;98705.13;;;5.20
66170;BMP280;66757;44.024;20.456;2023-02-03T00:48:49;98702.38;;;5.32
66170;BMP280;66757;44.024;20.456;2023-02-03T00:51:14;98701.72;;;5.64
66170;BMP280;66757;44.024;20.456;2023-02-03T00:53:39;98707.16;;;5.79
66170;BMP280;66757;44.024;20.456;2023-02-03T00:56:05;98712.31;;;5.69
66170;BMP280;66757;44.024;20.456;2023-02-03T00:58:38;98710.78;;;5.51
66170;BMP280;66757;44.024;20.456;2023-02-03T01:01:04;98703.72;;;5.35
66170;BMP280;66757;44.024;20.456;2023-02-03T01:03:29;98707.50;;;5.44
66170;BMP280;66757;44.024;20.456;2023-02-03T01:05:55;98714.88;;;5.42
66170;BMP280;66757;44.024;20.456;2023-02-03T01:08:21;98706.28;;;5.29
66170;BMP280;66757;44.024;20.456;2023-02-03T01:10:48;98717.16;;;5.16
66170;BMP280;66757;44.024;20.456;2023-02-03T01:13:14;98716.19;;;5.44
66170;BMP280;66757;44.024;20.456;2023-02-03T01:15:46;98712.13;;;5.53
66170;BMP280;66757;44.024;20.456;2023-02-03T01:18:12;98708.97;;;5.51
66170;BMP280;66757;44.024;20.456;2023-02-03T01:20:38;98700.28;;;5.51
66170;BMP280;66757;44.024;20.456;2023-02-03T01:23:03;98702.50;;;5.64
66170;BMP280;66757;44.024;20.456;2023-02-03T01:25:29;98703.13;;;5.11
66170;BMP280;66757;44.024;20.456;2023-02-03T01:27:54;98708.56;;;5.21
66170;BMP280;66757;44.024;20.456;2023-02-03T01:30:20;98704.72;;;5.12
66170;BMP280;66757;44.024;20.456;2023-02-03T01:32:45;98698.00;;;4.82
66170;BMP280;66757;44.024;20.456;2023-02-03T01:35:11;98704.25;;;5.15
66170;BMP280;66757;44.024;20.456;2023-02-03T01:37:36;98715.41;;;5.05
66170;BMP280;66757;44.024;20.456;2023-02-03T01:40:02;98708.56;;;5.04
66170;BMP280;66757;44.024;20.456;2023-02-03T01:42:32;98718.50;;;5.19
66170;BMP280;66757;44.024;20.456;2023-02-03T01:44:57;98717.19;;;4.83
66170;BMP280;66757;44.024;20.456;2023-02-03T01:49:59;98704.22;;;4.93
66170;BMP280;66757;44.024;20.456;2023-02-03T01:52:26;98712.66;;;5.34
66170;BMP280;66757;44.024;20.456;2023-02-03T01:54:56;98715.41;;;5.44
66170;BMP280;66757;44.024;20.456;2023-02-03T01:57:26;98716.06;;;5.34
66170;BMP280;66757;44.024;20.456;2023-02-03T01:59:55;98708.41;;;5.11
66170;BMP280;66757;44.024;20.456;2023-02-03T02:02:21;98703.81;;;5.40
66170;BMP280;66757;44.024;20.456;2023-02-03T02:04:56;98715.94;;;5.41
66170;BMP280;66757;44.024;20.456;2023-02-03T02:07:23;98709.47;;;5.32
66170;BMP280;66757;44.024;20.456;2023-02-03T02:09:49;98721.50;;;5.27
66170;BMP280;66757;44.024;20.456;2023-02-03T02:12:15;98730.38;;;5.05
66170;BMP280;66757;44.024;20.456;2023-02-03T02:14:41;98718.13;;;5.10
66170;BMP280;66757;44.024;20.456;2023-02-03T02:36:17;98736.97;;;5.41
66170;BMP280;66757;44.024;20.456;2023-02-03T02:41:38;98731.94;;;5.39
66170;BMP280;66757;44.024;20.456;2023-02-03T02:44:15;98723.53;;;5.20
66170;BMP280;66757;44.024;20.456;2023-02-03T02:46:54;98736.34;;;5.17
66170;BMP280;66757;44.024;20.456;2023-02-03T02:49:32;98727.97;;;5.20
66170;BMP280;66757;44.024;20.456;2023-02-03T02:52:03;98733.25;;;5.03
66170;BMP280;66757;44.024;20.456;2023-02-03T02:54:30;98732.31;;;5.26
66170;BMP280;66757;44.024;20.456;2023-02-03T02:56:59;98735.81;;;4.98
66170;BMP280;66757;44.024;20.456;2023-02-03T02:59:26;98738.06;;;4.89
66170;BMP280;66757;44.024;20.456;2023-02-03T03:01:51;98736.34;;;5.17
66170;BMP280;66757;44.024;20.456;2023-02-03T03:04:20;98742.41;;;5.17
66170;BMP280;66757;44.024;20.456;2023-02-03T03:09:18;98744.50;;;4.99
66170;BMP280;66757;44.024;20.456;2023-02-03T03:11:50;98747.09;;;5.32
66170;BMP280;66757;44.024;20.456;2023-02-03T03:14:18;98746.44;;;5.42
66170;BMP280;66757;44.024;20.456;2023-02-03T03:16:47;98750.19;;;5.29
66170;BMP280;66757;44.024;20.456;2023-02-03T03:19:19;98751.09;;;5.01
66170;BMP280;66757;44.024;20.456;2023-02-03T03:21:53;98755.25;;;5.14
66170;BMP280;66757;44.024;20.456;2023-02-03T03:24:31;98759.22;;;5.16
66170;BMP280;66757;44.024;20.456;2023-02-03T03:27:03;98759.31;;;5.21
66170;BMP280;66757;44.024;20.456;2023-02-03T03:29:39;98769.13;;;5.48
66170;BMP280;66757;44.024;20.456;2023-02-03T03:32:07;98764.41;;;4.94
66170;BMP280;66757;44.024;20.456;2023-02-03T03:34:33;98763.03;;;5.42
66170;BMP280;66757;44.024;20.456;2023-02-03T03:37:04;98764.06;;;5.41
66170;BMP280;66757;44.024;20.456;2023-02-03T03:42:11;98756.03;;;5.14
66170;BMP280;66757;44.024;20.456;2023-02-03T03:44:49;98759.66;;;5.47
66170;BMP280;66757;44.024;20.456;2023-02-03T03:47:31;98762.22;;;5.64
66170;BMP280;66757;44.024;20.456;2023-02-03T03:50:00;98757.50;;;5.22
66170;BMP280;66757;44.024;20.456;2023-02-03T03:52:30;98752.91;;;5.17
66170;BMP280;66757;44.024;20.456;2023-02-03T03:54:58;98759.75;;;5.35
66170;BMP280;66757;44.024;20.456;2023-02-03T03:57:32;98757.22;;;5.40
66170;BMP280;66757;44.024;20.456;2023-02-03T04:00:02;98760.25;;;5.15
66170;BMP280;66757;44.024;20.456;2023-02-03T04:02:28;98763.84;;;5.26
66170;BMP280;66757;44.024;20.456;2023-02-03T04:04:57;98764.69;;;5.32
66170;BMP280;66757;44.024;20.456;2023-02-03T04:07:36;98765.00;;;5.35
66170;BMP280;66757;44.024;20.456;2023-02-03T04:10:06;98773.06;;;5.28
66170;BMP280;66757;44.024;20.456;2023-02-03T04:12:36;98763.09;;;5.31
66170;BMP280;66757;44.024;20.456;2023-02-03T04:15:02;98772.75;;;5.64
66170;BMP280;66757;44.024;20.456;2023-02-03T04:17:27;98768.59;;;5.29
66170;BMP280;66757;44.024;20.456;2023-02-03T04:19:53;98773.38;;;5.32
66170;BMP280;66757;44.024;20.456;2023-02-03T04:22:18;98770.16;;;5.25
66170;BMP280;66757;44.024;20.456;2023-02-03T04:24:44;98777.72;;;5.38
66170;BMP280;66757;44.024;20.456;2023-02-03T04:27:09;98775.19;;;5.10
66170;BMP280;66757;44.024;20.456;2023-02-03T04:29:34;98772.91;;;5.52
66170;BMP280;66757;44.024;20.456;2023-02-03T04:32:00;98773.06;;;5.28
66170;BMP280;66757;44.024;20.456;2023-02-03T04:34:25;98777.38;;;5.51
66170;BMP280;66757;44.024;20.456;2023-02-03T04:36:51;98776.91;;;5.38
66170;BMP280;66757;44.024;20.456;2023-02-03T04:39:16;98775.44;;;5.47
66170;BMP280;66757;44.024;20.456;2023-02-03T04:41:42;98776.19;;;5.42
66170;BMP280;66757;44.024;20.456;2023-02-03T04:44:08;98771.16;;;5.41
66170;BMP280;66757;44.024;20.456;2023-02-03T04:46:33;98785.84;;;5.37
66170;BMP280;66757;44.024;20.456;2023-02-03T04:48:59;98785.16;;;5.46
66170;BMP280;66757;44.024;20.456;2023-02-03T04:51:25;98788.84;;;5.84
66170;BMP280;66757;44.024;20.456;2023-02-03T04:53:50;98784.41;;;5.68
66170;BMP280;66757;44.024;20.456;2023-02-03T04:56:16;98782.75;;;5.45
66170;BMP280;66757;44.024;20.456;2023-02-03T04:58:41;98787.81;;;5.29
66170;BMP280;66757;44.024;20.456;2023-02-03T05:01:07;98787.22;;;5.22
66170;BMP280;66757;44.024;20.456;2023-02-03T05:03:34;98776.78;;;5.49
66170;BMP280;66757;44.024;20.456;2023-02-03T05:06:00;98779.53;;;5.59
66170;BMP280;66757;44.024;20.456;2023-02-03T05:08:27;98785.72;;;5.48
66170;BMP280;66757;44.024;20.456;2023-02-03T05:10:54;98786.38;;;5.55
66170;BMP280;66757;44.024;20.456;2023-02-03T05:13:20;98788.88;;;5.12
66170;BMP280;66757;44.024;20.456;2023-02-03T05:15:46;98787.88;;;5.35
66170;BMP280;66757;44.024;20.456;2023-02-03T05:18:11;98786.78;;;4.97
66170;BMP280;66757;44.024;20.456;2023-02-03T05:20:37;98793.69;;;5.53
66170;BMP280;66757;44.024;20.456;2023-02-03T05:23:02;98784.56;;;5.39
66170;BMP280;66757;44.024;20.456;2023-02-03T05:25:27;98791.91;;;5.37
66170;BMP280;66757;44.024;20.456;2023-02-03T05:27:53;98796.69;;;5.23
66170;BMP280;66757;44.024;20.456;2023-02-03T05:30:19;98796.44;;;5.25
66170;BMP280;66757;44.024;20.456;2023-02-03T05:32:44;98799.38;;;5.28
66170;BMP280;66757;44.024;20.456;2023-02-03T05:35:10;98793.94;;;5.35
66170;BMP280;66757;44.024;20.456;2023-02-03T05:37:36;98803.09;;;5.49
66170;BMP280;66757;44.024;20.456;2023-02-03T05:40:02;98811.19;;;5.26
66170;BMP280;66757;44.024;20.456;2023-02-03T05:42:47;98813.56;;;4.94
66170;BMP280;66757;44.024;20.456;2023-02-03T05:45:13;98812.00;;;5.26
66170;BMP280;66757;44.024;20.456;2023-02-03T05:47:38;98804.41;;;4.96
66170;BMP280;66757;44.024;20.456;2023-02-03T05:50:04;98821.72;;;5.26
66170;BMP280;66757;44.024;20.456;2023-02-03T05:52:30;98818.03;;;5.10
66170;BMP280;66757;44.024;20.456;2023-02-03T05:54:55;98817.25;;;4.93
66170;BMP280;66757;44.024;20.456;2023-02-03T05:57:21;98813.88;;;5.14
66170;BMP280;66757;44.024;20.456;2023-02-03T05:59:46;98811.19;;;5.26
66170;BMP280;66757;44.024;20.456;2023-02-03T06:02:12;98803.38;;;4.97
66170;BMP280;66757;44.024;20.456;2023-02-03T06:04:37;98798.34;;;5.13
66170;BMP280;66757;44.024;20.456;2023-02-03T06:07:03;98807.34;;;5.17
66170;BMP280;66757;44.024;20.456;2023-02-03T06:09:28;98799.69;;;4.99
66170;BMP280;66757;44.024;20.456;2023-02-03T06:11:54;98800.69;;;4.92
66170;BMP280;66757;44.024;20.456;2023-02-03T06:14:19;98804.41;;;4.96
66170;BMP280;66757;44.024;20.456;2023-02-03T06:16:45;98805.50;;;4.84
66170;BMP280;66757;44.024;20.456;2023-02-03T06:19:10;98802.72;;;4.90
66170;BMP280;66757;44.024;20.456;2023-02-03T06:21:36;98809.59;;;4.91
66170;BMP280;66757;44.024;20.456;2023-02-03T06:24:01;98819.38;;;5.29
66170;BMP280;66757;44.024;20.456;2023-02-03T06:26:27;98816.81;;;4.84
66170;BMP280;66757;44.024;20.456;2023-02-03T06:28:52;98820.38;;;4.78
66170;BMP280;66757;44.024;20.456;2023-02-03T06:31:18;98828.69;;;4.58
66170;BMP280;66757;44.024;20.456;2023-02-03T06:33:43;98829.31;;;4.94
66170;BMP280;66757;44.024;20.456;2023-02-03T06:36:09;98830.94;;;5.12
66170;BMP280;66757;44.024;20.456;2023-02-03T06:38:34;98831.44;;;5.09
66170;BMP280;66757;44.024;20.456;2023-02-03T06:41:00;98836.81;;;5.02
66170;BMP280;66757;44.024;20.456;2023-02-03T06:43:25;98827.25;;;4.79
66170;BMP280;66757;44.024;20.456;2023-02-03T06:45:51;98847.56;;;4.84
66170;BMP280;66757;44.024;20.456;2023-02-03T06:48:18;98849.66;;;4.99
66170;BMP280;66757;44.024;20.456;2023-02-03T06:50:45;98856.72;;;4.98
66170;BMP280;66757;44.024;20.456;2023-02-03T06:53:10;98857.53;;;4.99
66170;BMP280;66757;44.024;20.456;2023-02-03T06:55:36;98862.47;;;5.12
66170;BMP280;66757;44.024;20.456;2023-02-03T06:58:02;98858.78;;;5.24
66170;BMP280;66757;44.024;20.456;2023-02-03T07:00:27;98862.47;;;5.45
66170;BMP280;66757;44.024;20.456;2023-02-03T07:02:54;98867.38;;;5.53
66170;BMP280;66757;44.024;20.456;2023-02-03T07:05:21;98859.69;;;5.18
66170;BMP280;66757;44.024;20.456;2023-02-03T07:07:47;98860.28;;;5.20
66170;BMP280;66757;44.024;20.456;2023-02-03T07:10:12;98858.09;;;5.34
66170;BMP280;66757;44.024;20.456;2023-02-03T07:12:38;98853.06;;;5.49
66170;BMP280;66757;44.024;20.456;2023-02-03T07:15:04;98847.94;;;5.21
66170;BMP280;66757;44.024;20.456;2023-02-03T07:17:29;98843.78;;;4.91
66170;BMP280;66757;44.024;20.456;2023-02-03T07:19:55;98846.47;;;5.30
66170;BMP280;66757;44.024;20.456;2023-02-03T07:22:20;98846.41;;;5.25
66170;BMP280;66757;44.024;20.456;2023-02-03T07:24:46;98848.59;;;5.50
66170;BMP280;66757;44.024;20.456;2023-02-03T07:27:11;98847.22;;;5.09
66170;BMP280;66757;44.024;20.456;2023-02-03T07:29:38;98848.63;;;5.16
66170;BMP280;66757;44.024;20.456;2023-02-03T07:32:03;98856.06;;;5.36
66170;BMP280;66757;44.024;20.456;2023-02-03T07:34:29;98853.44;;;5.75
66170;BMP280;66757;44.024;20.456;2023-02-03T07:36:55;98863.50;;;5.61
66170;BMP280;66757;44.024;20.456;2023-02-03T07:39:20;98869.28;;;5.41
66170;BMP280;66757;44.024;20.456;2023-02-03T07:41:46;98863.59;;;5.49
66170;BMP280;66757;44.024;20.456;2023-02-03T07:44:12;98864.53;;;5.60
66170;BMP280;66757;44.024;20.456;2023-02-03T07:46:38;98866.81;;;5.51
66170;BMP280;66757;44.024;20.456;2023-02-03T07:49:10;98865.38;;;5.27
66170;BMP280;66757;44.024;20.456;2023-02-03T07:51:35;98864.63;;;5.48
66170;BMP280;66757;44.024;20.456;2023-02-03T07:54:01;98868.66;;;5.51
66170;BMP280;66757;44.024;20.456;2023-02-03T07:56:27;98874.44;;;5.03
66170;BMP280;66757;44.024;20.456;2023-02-03T07:58:52;98874.28;;;5.59
66170;BMP280;66757;44.024;20.456;2023-02-03T08:01:18;98877.78;;;5.48
66170;BMP280;66757;44.024;20.456;2023-02-03T08:03:43;98883.84;;;5.32
66170;BMP280;66757;44.024;20.456;2023-02-03T08:06:10;98885.69;;;5.48
66170;BMP280;66757;44.024;20.456;2023-02-03T08:08:35;98885.91;;;5.64
66170;BMP280;66757;44.024;20.456;2023-02-03T08:11:01;98889.75;;;5.73
66170;BMP280;66757;44.024;20.456;2023-02-03T08:13:26;98890.94;;;5.82
66170;BMP280;66757;44.024;20.456;2023-02-03T08:15:52;98887.75;;;5.46
66170;BMP280;66757;44.024;20.456;2023-02-03T08:18:18;98886.63;;;5.59
66170;BMP280;66757;44.024;20.456;2023-02-03T08:20:43;98887.69;;;5.58
66170;BMP280;66757;44.024;20.456;2023-02-03T08:23:08;98881.13;;;5.60
66170;BMP280;66757;44.024;20.456;2023-02-03T08:25:34;98881.13;;;5.60
66170;BMP280;66757;44.024;20.456;2023-02-03T08:27:59;98882.69;;;5.56
66170;BMP280;66757;44.024;20.456;2023-02-03T08:30:25;98888.00;;;5.45
66170;BMP280;66757;44.024;20.456;2023-02-03T08:32:53;98889.56;;;5.96
66170;BMP280;66757;44.024;20.456;2023-02-03T08:35:18;98889.31;;;6.19
66170;BMP280;66757;44.024;20.456;2023-02-03T08:37:43;98901.91;;;5.79
66170;BMP280;66757;44.024;20.456;2023-02-03T08:40:11;98899.97;;;5.52
66170;BMP280;66757;44.024;20.456;2023-02-03T08:42:36;98902.13;;;6.11
66170;BMP280;66757;44.024;20.456;2023-02-03T08:45:02;98905.22;;;5.86
66170;BMP280;66757;44.024;20.456;2023-02-03T08:47:28;98895.38;;;6.20
66170;BMP280;66757;44.024;20.456;2023-02-03T08:49:54;98902.59;;;5.86
66170;BMP280;66757;44.024;20.456;2023-02-03T08:52:20;98901.09;;;5.73
66170;BMP280;66757;44.024;20.456;2023-02-03T08:54:46;98908.19;;;5.94
66170;BMP280;66757;44.024;20.456;2023-02-03T08:57:12;98901.34;;;6.10
66170;BMP280;66757;44.024;20.456;2023-02-03T08:59:38;98897.19;;;6.14
66170;BMP280;66757;44.024;20.456;2023-02-03T09:02:06;98896.16;;;6.20
66170;BMP280;66757;44.024;20.456;2023-02-03T09:04:32;98905.75;;;6.27
66170;BMP280;66757;44.024;20.456;2023-02-03T09:06:59;98907.56;;;6.48
66170;BMP280;66757;44.024;20.456;2023-02-03T09:09:25;98900.94;;;6.23
66170;BMP280;66757;44.024;20.456;2023-02-03T09:11:51;98896.06;;;6.10
66170;BMP280;66757;44.024;20.456;2023-02-03T09:14:19;98892.19;;;6.88
66170;BMP280;66757;44.024;20.456;2023-02-03T09:16:44;98896.53;;;6.51
66170;BMP280;66757;44.024;20.456;2023-02-03T09:19:10;98893.22;;;6.61
66170;BMP280;66757;44.024;20.456;2023-02-03T09:21:37;98888.16;;;7.08
66170;BMP280;66757;44.024;20.456;2023-02-03T09:24:03;98895.81;;;7.09
66170;BMP280;66757;44.024;20.456;2023-02-03T09:26:29;98899.56;;;6.16
66170;BMP280;66757;44.024;20.456;2023-02-03T09:28:54;98897.28;;;6.46
66170;BMP280;66757;44.024;20.456;2023-02-03T09:31:20;98898.22;;;6.57
66170;BMP280;66757;44.024;20.456;2023-02-03T09:33:46;98895.63;;;6.89
66170;BMP280;66757;44.024;20.456;2023-02-03T09:36:12;98892.63;;;6.80
66170;BMP280;66757;44.024;20.456;2023-02-03T09:38:38;98902.34;;;6.53
66170;BMP280;66757;44.024;20.456;2023-02-03T09:46:22;98901.75;;;6.95
66170;BMP280;66757;44.024;20.456;2023-02-03T09:48:54;98891.44;;;7.25
66170;BMP280;66757;44.024;20.456;2023-02-03T09:51:28;98890.34;;;7.16
66170;BMP280;66757;44.024;20.456;2023-02-03T09:54:00;98892.97;;;6.84
66170;BMP280;66757;44.024;20.456;2023-02-03T09:56:32;98885.09;;;7.21
66170;BMP280;66757;44.024;20.456;2023-02-03T09:59:00;98878.19;;;7.52
66170;BMP280;66757;44.024;20.456;2023-02-03T10:01:49;98869.97;;;7.48
66170;BMP280;66757;44.024;20.456;2023-02-03T10:06:59;98867.59;;;7.89
66170;BMP280;66757;44.024;20.456;2023-02-03T10:15:06;98862.84;;;7.96
66170;BMP280;66757;44.024;20.456;2023-02-03T10:17:42;98859.34;;;8.73
66170;BMP280;66757;44.024;20.456;2023-02-03T10:20:15;98874.97;;;7.92
66170;BMP280;66757;44.024;20.456;2023-02-03T10:22:49;98870.25;;;7.89
66170;BMP280;66757;44.024;20.456;2023-02-03T10:25:23;98878.56;;;8.28
66170;BMP280;66757;44.024;20.456;2023-02-03T10:27:55;98881.50;;;8.37
66170;BMP280;66757;44.024;20.456;2023-02-03T10:30:25;98877.16;;;8.05
66170;BMP280;66757;44.024;20.456;2023-02-03T10:33:08;98878.88;;;7.37
66170;BMP280;66757;44.024;20.456;2023-02-03T10:36:06;98872.78;;;7.74
66170;BMP280;66757;44.024;20.456;2023-02-03T10:41:21;98871.91;;;8.15
66170;BMP280;66757;44.024;20.456;2023-02-03T10:43:49;98861.72;;;7.77
66170;BMP280;66757;44.024;20.456;2023-02-03T10:48:51;98850.19;;;7.98
66170;BMP280;66757;44.024;20.456;2023-02-03T10:51:26;98847.66;;;8.34
66170;BMP280;66757;44.024;20.456;2023-02-03T10:53:53;98838.34;;;8.11
66170;BMP280;66757;44.024;20.456;2023-02-03T10:56:26;98847.88;;;8.22
66170;BMP280;66757;44.024;20.456;2023-02-03T10:58:55;98830.53;;;8.51
66170;BMP280;66757;44.024;20.456;2023-02-03T11:01:26;98830.72;;;8.30
66170;BMP280;66757;44.024;20.456;2023-02-03T11:04:02;98812.66;;;7.96
66170;BMP280;66757;44.024;20.456;2023-02-03T11:06:30;98815.41;;;8.32
66170;BMP280;66757;44.024;20.456;2023-02-03T11:08:58;98813.63;;;8.78
66170;BMP280;66757;44.024;20.456;2023-02-03T11:11:29;98820.19;;;8.40
66170;BMP280;66757;44.024;20.456;2023-02-03T11:16:34;98816.50;;;8.66
66170;BMP280;66757;44.024;20.456;2023-02-03T11:19:17;98809.63;;;8.55
66170;BMP280;66757;44.024;20.456;2023-02-03T11:21:50;98795.09;;;8.73
66170;BMP280;66757;44.024;20.456;2023-02-03T11:24:28;98793.75;;;8.75
66170;BMP280;66757;44.024;20.456;2023-02-03T11:26:59;98790.06;;;8.97
66170;BMP280;66757;44.024;20.456;2023-02-03T11:29:33;98789.03;;;8.62
66170;BMP280;66757;44.024;20.456;2023-02-03T11:34:55;98789.03;;;8.52
66170;BMP280;66757;44.024;20.456;2023-02-03T11:37:38;98791.13;;;8.70
66170;BMP280;66757;44.024;20.456;2023-02-03T11:42:33;98778.16;;;8.58
66170;BMP280;66757;44.024;20.456;2023-02-03T11:45:13;98777.13;;;8.49
66170;BMP280;66757;44.024;20.456;2023-02-03T11:47:46;98769.44;;;8.78
66170;BMP280;66757;44.024;20.456;2023-02-03T11:50:15;98776.06;;;9.76
66170;BMP280;66757;44.024;20.456;2023-02-03T11:52:51;98768.56;;;11.99
66170;BMP280;66757;44.024;20.456;2023-02-03T11:55:35;98762.72;;;13.71
66170;BMP280;66757;44.024;20.456;2023-02-03T12:07:05;98728.78;;;14.30
66170;BMP280;66757;44.024;20.456;2023-02-03T12:23:53;98685.47;;;14.81
66170;BMP280;66757;44.024;20.456;2023-02-03T12:29:17;98677.31;;;14.38
66170;BMP280;66757;44.024;20.456;2023-02-03T12:39:42;98662.72;;;12.61
66170;BMP280;66757;44.024;20.456;2023-02-03T12:42:31;98652.75;;;14.19
66170;BMP280;66757;44.024;20.456;2023-02-03T12:50:14;98640.06;;;13.49
66170;BMP280;66757;44.024;20.456;2023-02-03T12:52:46;98630.94;;;13.95
66170;BMP280;66757;44.024;20.456;2023-02-03T12:55:29;98625.66;;;13.50
66170;BMP280;66757;44.024;20.456;2023-02-03T12:58:04;98610.47;;;12.78
66170;BMP280;66757;44.024;20.456;2023-02-03T13:00:43;98611.06;;;10.99
66170;BMP280;66757;44.024;20.456;2023-02-03T13:03:18;98603.41;;;11.17
66170;BMP280;66757;44.024;20.456;2023-02-03T13:08:59;98581.94;;;10.52
66170;BMP280;66757;44.024;20.456;2023-02-03T13:11:45;98588.94;;;10.43
66170;BMP280;66757;44.024;20.456;2023-02-03T13:14:23;98579.34;;;10.47
66170;BMP280;66757;44.024;20.456;2023-02-03T13:16:57;98571.63;;;10.26
66170;BMP280;66757;44.024;20.456;2023-02-03T13:19:27;98556.44;;;10.03
66170;BMP280;66757;44.024;20.456;2023-02-03T13:21:53;98549.19;;;10.38
66170;BMP280;66757;44.024;20.456;2023-02-03T13:24:22;98541.41;;;10.70
66170;BMP280;66757;44.024;20.456;2023-02-03T13:27:08;98545.03;;;10.32
66170;BMP280;66757;44.024;20.456;2023-02-03T13:30:04;98543.25;;;10.27
66170;BMP280;66757;44.024;20.456;2023-02-03T13:37:59;98523.03;;;10.07
66170;BMP280;66757;44.024;20.456;2023-02-03T13:41:08;98525.34;;;10.38
66170;BMP280;66757;44.024;20.456;2023-02-03T13:43:39;98506.41;;;10.87
66170;BMP280;66757;44.024;20.456;2023-02-03T13:46:20;98511.91;;;10.05
66170;BMP280;66757;44.024;20.456;2023-02-03T13:48:48;98504.03;;;10.67
66170;BMP280;66757;44.024;20.456;2023-02-03T13:51:20;98501.66;;;10.65
66170;BMP280;66757;44.024;20.456;2023-02-03T13:53:47;98489.78;;;10.81
66170;BMP280;66757;44.024;20.456;2023-02-03T13:56:20;98489.38;;;10.32
66170;BMP280;66757;44.024;20.456;2023-02-03T14:01:28;98488.06;;;10.29
66170;BMP280;66757;44.024;20.456;2023-02-03T14:03:56;98483.22;;;10.12
66170;BMP280;66757;44.024;20.456;2023-02-03T14:09:19;98483.34;;;10.02
66170;BMP280;66757;44.024;20.456;2023-02-03T14:11:45;98471.50;;;10.18
66170;BMP280;66757;44.024;20.456;2023-02-03T14:16:38;98457.97;;;9.96
66170;BMP280;66757;44.024;20.456;2023-02-03T14:21:59;98467.50;;;9.68
66170;BMP280;66757;44.024;20.456;2023-02-03T14:24:41;98465.41;;;10.18
66170;BMP280;66757;44.024;20.456;2023-02-03T14:27:18;98465.50;;;10.08
66170;BMP280;66757;44.024;20.456;2023-02-03T14:29:44;98460.19;;;10.32
66170;BMP280;66757;44.024;20.456;2023-02-03T14:32:11;98453.03;;;10.32
66170;BMP280;66757;44.024;20.456;2023-02-03T14:34:42;98459.22;;;10.22
66170;BMP280;66757;44.024;20.456;2023-02-03T14:37:28;98452.91;;;10.00
66170;BMP280;66757;44.024;20.456;2023-02-03T14:42:29;98447.84;;;10.22
66170;BMP280;66757;44.024;20.456;2023-02-03T14:45:20;98442.50;;;10.27
66170;BMP280;66757;44.024;20.456;2023-02-03T14:58:44;98416.13;;;9.93
66170;BMP280;66757;44.024;20.456;2023-02-03T15:06:45;98394.56;;;9.81
66170;BMP280;66757;44.024;20.456;2023-02-03T15:09:41;98390.59;;;10.02
66170;BMP280;66757;44.024;20.456;2023-02-03T15:12:22;98382.28;;;9.66
66170;BMP280;66757;44.024;20.456;2023-02-03T15:14:48;98362.38;;;9.69
66170;BMP280;66757;44.024;20.456;2023-02-03T15:19:44;98355.28;;;9.35
66170;BMP280;66757;44.024;20.456;2023-02-03T15:24:44;98340.16;;;9.41
66170;BMP280;66757;44.024;20.456;2023-02-03T15:27:26;98335.34;;;9.19
66170;BMP280;66757;44.024;20.456;2023-02-03T15:29:52;98330.94;;;9.38
66170;BMP280;66757;44.024;20.456;2023-02-03T15:32:33;98329.06;;;9.63
66170;BMP280;66757;44.024;20.456;2023-02-03T15:35:03;98320.66;;;9.32
66170;BMP280;66757;44.024;20.456;2023-02-03T15:37:36;98316.94;;;9.33
66170;BMP280;66757;44.024;20.456;2023-02-03T15:40:20;98305.41;;;9.47
66170;BMP280;66757;44.024;20.456;2023-02-03T15:43:01;98304.22;;;9.35
66170;BMP280;66757;44.024;20.456;2023-02-03T15:45:45;98296.16;;;9.21
66170;BMP280;66757;44.024;20.456;2023-02-03T15:53:32;98291.47;;;9.13
66170;BMP280;66757;44.024;20.456;2023-02-03T15:56:00;98290.25;;;9.29
66170;BMP280;66757;44.024;20.456;2023-02-03T15:58:36;98284.91;;;9.10
66170;BMP280;66757;44.024;20.456;2023-02-03T16:01:08;98280.31;;;9.16
66170;BMP280;66757;44.024;20.456;2023-02-03T16:03:48;98277.88;;;9.48
66170;BMP280;66757;44.024;20.456;2023-02-03T16:06:25;98262.44;;;9.55
66170;BMP280;66757;44.024;20.456;2023-02-03T16:08:52;98264.63;;;9.48
66170;BMP280;66757;44.024;20.456;2023-02-03T16:11:32;98259.06;;;9.69
66170;BMP280;66757;44.024;20.456;2023-02-03T16:14:00;98257.31;;;9.40
66170;BMP280;66757;44.024;20.456;2023-02-03T16:16:34;98257.03;;;9.18
66170;BMP280;66757;44.024;20.456;2023-02-03T16:19:03;98255.56;;;9.07
66170;BMP280;66757;44.024;20.456;2023-02-03T16:21:35;98253.97;;;9.06
66170;BMP280;66757;44.024;20.456;2023-02-03T16:24:02;98249.41;;;9.35
66170;BMP280;66757;44.024;20.456;2023-02-03T16:26:30;98246.50;;;9.13
66170;BMP280;66757;44.024;20.456;2023-02-03T16:29:03;98246.53;;;9.32
66170;BMP280;66757;44.024;20.456;2023-02-03T16:31:51;98237.41;;;9.43
66170;BMP280;66757;44.024;20.456;2023-02-03T16:34:37;98237.00;;;9.12
66170;BMP280;66757;44.024;20.456;2023-02-03T16:37:41;98236.16;;;8.87
66170;BMP280;66757;44.024;20.456;2023-02-03T16:40:25;98239.44;;;8.79
66170;BMP280;66757;44.024;20.456;2023-02-03T16:43:11;98230.88;;;8.87